Time;durP1;ratioP1;P1;durP2;ratioP2;P2;SDS_P1;SDS_P2;PMS_P1;PMS_P2;Temp;Humidity;BMP_temperature;BMP_pressure;BME280_temperature;BME280_humidity;BME280_pressure;Samples;Min_cycle;Max_cycle;Signal;HPM_P1;HPM_P2
2022/05/29 00:01:09;;;;;;;11.90;3.00;;;;;;;;;;5091460;28;20080;-79
2022/05/29 00:03:35;;;;;;;7.18;2.90;;;;;;;;;;5090505;28;20479;-80
2022/05/29 00:06:02;;;;;;;6.90;2.35;;;;;;;;;;5080261;28;20529;-79
2022/05/29 00:08:30;;;;;;;9.13;2.60;;;;;;;;;;5069033;28;20052;-79
2022/05/29 00:10:59;;;;;;;7.38;2.30;;;;;;;;;;5091845;28;20110;-79
2022/05/29 00:13:25;;;;;;;7.53;2.33;;;;;;;;;;5074044;28;20048;-79
2022/05/29 00:15:52;;;;;;;9.55;2.47;;;;;;;;;;5091442;28;20136;-80
2022/05/29 00:18:18;;;;;;;7.78;2.13;;;;;;;;;;5088879;28;20052;-79
2022/05/29 00:20:48;;;;;;;6.55;2.22;;;;;;;;;;5068826;28;20076;-78
2022/05/29 00:23:14;;;;;;;8.85;2.40;;;;;;;;;;5054368;28;20116;-79
2022/05/29 00:25:42;;;;;;;7.03;2.15;;;;;;;;;;5050259;28;20175;-79
2022/05/29 00:28:08;;;;;;;10.30;2.60;;;;;;;;;;5087533;28;20052;-79
2022/05/29 00:30:37;;;;;;;8.70;2.45;;;;;;;;;;5065963;28;20163;-79
2022/05/29 00:33:05;;;;;;;6.68;2.53;;;;;;;;;;5089212;28;20064;-80
2022/05/29 00:35:32;;;;;;;8.55;2.45;;;;;;;;;;5091678;28;20070;-79
2022/05/29 00:37:59;;;;;;;12.82;2.75;;;;;;;;;;5081102;28;20298;-79
2022/05/29 00:40:25;;;;;;;8.80;2.22;;;;;;;;;;5059363;28;20083;-79
2022/05/29 00:42:52;;;;;;;10.13;2.97;;;;;;;;;;5074288;28;20131;-79
2022/05/29 00:45:25;;;;;;;7.93;2.40;;;;;;;;;;5074311;28;20135;-79
2022/05/29 00:47:52;;;;;;;7.07;2.25;;;;;;;;;;5067818;28;20063;-79
2022/05/29 00:50:22;;;;;;;8.40;2.33;;;;;;;;;;5066818;28;20053;-77
2022/05/29 00:52:48;;;;;;;11.52;2.63;;;;;;;;;;5079769;28;20140;-79
2022/05/29 00:55:17;;;;;;;11.40;2.65;;;;;;;;;;5090946;28;20147;-79
2022/05/29 00:57:45;;;;;;;11.68;3.25;;;;;;;;;;5069353;28;20958;-77
2022/05/29 01:00:15;;;;;;;7.45;3.33;;;;;;;;;;5063844;28;20127;-77
2022/05/29 01:02:42;;;;;;;11.68;2.92;;;;;;;;;;5066437;28;20056;-78
2022/05/29 01:05:10;;;;;;;14.40;2.50;;;;;;;;;;5080057;28;20057;-77
2022/05/29 01:07:36;;;;;;;10.90;2.60;;;;;;;;;;5083088;28;20055;-78
2022/05/29 01:10:04;;;;;;;7.20;2.30;;;;;;;;;;5084478;28;20061;-77
2022/05/29 01:12:39;;;;;;;13.00;2.38;;;;;;;;;;5081976;28;20053;-77
2022/05/29 01:15:21;;;;;;;12.73;2.67;;;;;;;;;;5070960;28;20049;-78
2022/05/29 01:17:55;;;;;;;8.63;2.28;;;;;;;;;;5066499;28;20099;-78
2022/05/29 01:20:38;;;;;;;9.85;2.42;;;;;;;;;;5063938;28;20056;-78
2022/05/29 01:23:23;;;;;;;9.77;2.28;;;;;;;;;;5048412;28;20067;-78
2022/05/29 01:26:09;;;;;;;8.50;2.50;;;;;;;;;;5056728;28;20057;-78
2022/05/29 01:28:45;;;;;;;10.40;2.40;;;;;;;;;;5049984;28;20041;-78
2022/05/29 01:31:25;;;;;;;8.48;2.40;;;;;;;;;;5046546;28;20111;-79
2022/05/29 01:34:01;;;;;;;12.30;2.50;;;;;;;;;;5059825;28;20542;-79
2022/05/29 01:36:38;;;;;;;11.38;2.50;;;;;;;;;;5083148;28;20037;-78
2022/05/29 01:39:12;;;;;;;6.75;2.70;;;;;;;;;;5066778;28;20591;-79
2022/05/29 01:41:59;;;;;;;8.63;2.50;;;;;;;;;;5058903;28;20263;-78
2022/05/29 01:44:44;;;;;;;8.10;2.75;;;;;;;;;;5043660;28;20057;-79
2022/05/29 01:47:23;;;;;;;10.40;2.88;;;;;;;;;;5065721;28;20067;-77
2022/05/29 01:49:51;;;;;;;8.52;2.90;;;;;;;;;;5084332;28;20096;-78
2022/05/29 01:52:26;;;;;;;12.68;3.33;;;;;;;;;;5068260;28;20170;-78
2022/05/29 01:54:59;;;;;;;8.52;2.72;;;;;;;;;;5069955;28;20115;-77
2022/05/29 01:57:27;;;;;;;10.40;3.00;;;;;;;;;;5075498;28;20100;-78
2022/05/29 02:00:03;;;;;;;10.68;3.22;;;;;;;;;;5070216;28;20056;-78
2022/05/29 02:03:02;;;;;;;11.93;3.70;;;;;;;;;;5083333;28;20066;-78
2022/05/29 02:05:34;;;;;;;14.98;3.88;;;;;;;;;;5031156;28;20063;-78
2022/05/29 02:08:10;;;;;;;11.15;3.40;;;;;;;;;;5067032;28;20145;-79
2022/05/29 02:10:57;;;;;;;11.43;3.92;;;;;;;;;;5085683;28;20091;-78
2022/05/29 02:13:32;;;;;;;10.90;3.40;;;;;;;;;;5066692;28;20052;-77
2022/05/29 02:16:34;;;;;;;12.57;2.97;;;;;;;;;;5063524;28;20432;-78
2022/05/29 02:19:07;;;;;;;8.70;3.65;;;;;;;;;;4984269;28;20425;-78
2022/05/29 02:21:45;;;;;;;12.38;3.83;;;;;;;;;;5061983;28;20052;-78
2022/05/29 02:24:13;;;;;;;20.20;3.72;;;;;;;;;;5057955;28;20136;-76
2022/05/29 02:27:00;;;;;;;18.33;4.15;;;;;;;;;;5082165;28;20044;-76
2022/05/29 02:29:27;;;;;;;15.23;4.13;;;;;;;;;;5055555;28;20106;-75
2022/05/29 02:32:09;;;;;;;13.50;3.53;;;;;;;;;;5061385;28;20044;-77
2022/05/29 02:34:42;;;;;;;15.18;4.00;;;;;;;;;;5067962;28;20140;-77
2022/05/29 02:37:23;;;;;;;18.55;4.15;;;;;;;;;;5084132;28;20500;-77
2022/05/29 02:39:49;;;;;;;8.68;2.90;;;;;;;;;;5064885;28;20612;-76
2022/05/29 02:42:16;;;;;;;10.60;2.67;;;;;;;;;;5051035;28;20135;-76
2022/05/29 02:44:55;;;;;;;11.95;2.83;;;;;;;;;;5068652;28;20062;-75
2022/05/29 02:47:31;;;;;;;13.75;2.97;;;;;;;;;;5077847;28;20513;-77
2022/05/29 02:50:06;;;;;;;10.57;2.53;;;;;;;;;;5070615;28;20056;-77
2022/05/29 02:52:32;;;;;;;10.60;3.00;;;;;;;;;;5069371;28;20599;-77
2022/05/29 02:54:59;;;;;;;9.32;2.80;;;;;;;;;;5085002;28;20135;-77
2022/05/29 02:57:25;;;;;;;13.18;2.60;;;;;;;;;;5066771;28;20082;-77
2022/05/29 02:59:54;;;;;;;8.63;2.65;;;;;;;;;;5086381;28;20553;-76
2022/05/29 03:02:46;;;;;;;9.95;2.50;;;;;;;;;;5067801;28;20054;-77
2022/05/29 03:05:13;;;;;;;8.43;2.38;;;;;;;;;;5087757;28;20071;-76
2022/05/29 03:07:48;;;;;;;10.35;2.50;;;;;;;;;;5084000;28;20143;-76
2022/05/29 03:10:17;;;;;;;7.40;2.22;;;;;;;;;;5068853;28;20460;-77
2022/05/29 03:12:46;;;;;;;6.00;2.10;;;;;;;;;;5068703;28;20083;-77
2022/05/29 03:15:31;;;;;;;8.10;2.00;;;;;;;;;;5056223;28;20737;-77
2022/05/29 03:18:17;;;;;;;5.38;1.80;;;;;;;;;;5069069;28;20060;-78
2022/05/29 03:20:50;;;;;;;7.53;1.65;;;;;;;;;;5067927;28;20550;-77
2022/05/29 03:23:25;;;;;;;4.97;1.33;;;;;;;;;;5084105;28;20058;-76
2022/05/29 03:25:55;;;;;;;5.35;1.60;;;;;;;;;;5057912;28;20681;-76
2022/05/29 03:28:27;;;;;;;6.43;1.33;;;;;;;;;;5084110;28;20602;-76
2022/05/29 03:30:54;;;;;;;4.93;2.10;;;;;;;;;;5058331;28;20059;-76
2022/05/29 03:33:20;;;;;;;7.30;1.55;;;;;;;;;;5084708;28;20049;-75
2022/05/29 03:35:53;;;;;;;5.32;1.40;;;;;;;;;;5064420;28;20516;-77
2022/05/29 03:38:20;;;;;;;6.00;1.42;;;;;;;;;;5064518;28;20125;-76
2022/05/29 03:40:47;;;;;;;4.85;1.30;;;;;;;;;;5085894;28;20126;-75
2022/05/29 03:43:13;;;;;;;5.40;1.48;;;;;;;;;;5084215;28;20056;-76
2022/05/29 03:45:40;;;;;;;3.78;1.40;;;;;;;;;;5078972;28;20048;-76
2022/05/29 03:48:06;;;;;;;6.85;1.27;;;;;;;;;;5066618;28;20048;-77
2022/05/29 03:50:35;;;;;;;7.63;1.38;;;;;;;;;;5067058;28;20156;-75
2022/05/29 03:53:03;;;;;;;3.58;1.25;;;;;;;;;;5063088;28;20060;-76
2022/05/29 03:55:29;;;;;;;4.43;1.40;;;;;;;;;;5065781;28;20147;-75
2022/05/29 03:57:56;;;;;;;5.78;1.70;;;;;;;;;;5066904;28;20528;-77
2022/05/29 04:00:23;;;;;;;3.75;1.25;;;;;;;;;;5066755;28;20052;-77
2022/05/29 04:02:50;;;;;;;4.13;1.50;;;;;;;;;;5072984;28;20111;-75
2022/05/29 04:05:19;;;;;;;4.80;1.48;;;;;;;;;;5063834;28;20053;-76
2022/05/29 04:13:16;;;;;;;6.47;1.50;;;;;;;;;;5078471;28;20275;-76
2022/05/29 04:15:45;;;;;;;5.22;1.35;;;;;;;;;;5079919;28;20135;-75
2022/05/29 04:18:16;;;;;;;6.00;1.52;;;;;;;;;;5061880;28;20295;-76
2022/05/29 04:20:42;;;;;;;;;;;;;;;;;;5072884;28;20127;-75
2022/05/29 04:23:08;;;;;;;9.02;1.65;;;;;;;;;;5062100;28;46816;-75
2022/05/29 04:25:35;;;;;;;5.05;1.50;;;;;;;;;;5060555;28;20049;-76
2022/05/29 04:28:01;;;;;;;5.47;1.40;;;;;;;;;;5064418;28;20062;-77
2022/05/29 04:30:28;;;;;;;5.28;1.42;;;;;;;;;;5077289;28;20058;-77
2022/05/29 04:33:00;;;;;;;5.25;1.60;;;;;;;;;;5081444;28;20800;-77
2022/05/29 04:35:27;;;;;;;6.25;1.60;;;;;;;;;;5057174;28;20060;-75
2022/05/29 04:37:54;;;;;;;6.22;1.80;;;;;;;;;;5075282;28;20091;-76
2022/05/29 04:40:20;;;;;;;6.53;1.90;;;;;;;;;;5079761;28;20063;-76
2022/05/29 04:42:46;;;;;;;6.88;2.50;;;;;;;;;;5082650;28;20461;-75
2022/05/29 04:45:13;;;;;;;8.93;2.20;;;;;;;;;;5061414;28;20052;-75
2022/05/29 04:47:39;;;;;;;6.07;2.00;;;;;;;;;;5059666;28;20075;-75
2022/05/29 04:50:07;;;;;;;10.35;2.38;;;;;;;;;;5065137;28;20059;-77
2022/05/29 04:52:34;;;;;;;7.45;2.78;;;;;;;;;;5068937;28;20171;-76
2022/05/29 04:55:00;;;;;;;5.75;2.78;;;;;;;;;;5070780;28;20053;-75
2022/05/29 04:57:26;;;;;;;7.70;2.20;;;;;;;;;;5060817;28;20064;-76
2022/05/29 04:59:53;;;;;;;7.47;2.72;;;;;;;;;;5062372;28;20167;-76
2022/05/29 05:02:19;;;;;;;7.43;2.65;;;;;;;;;;5064135;28;20052;-77
2022/05/29 05:04:45;;;;;;;11.88;3.00;;;;;;;;;;5063975;28;20063;-77
2022/05/29 05:07:12;;;;;;;12.40;2.80;;;;;;;;;;5062546;28;20056;-76
2022/05/29 05:09:39;;;;;;;8.40;3.22;;;;;;;;;;5064433;28;20049;-75
2022/05/29 05:12:05;;;;;;;8.77;2.80;;;;;;;;;;5076927;28;20056;-75
2022/05/29 05:14:33;;;;;;;7.32;2.88;;;;;;;;;;5063121;28;20055;-74
2022/05/29 05:16:59;;;;;;;11.32;2.90;;;;;;;;;;5060103;28;20057;-75
2022/05/29 05:19:26;;;;;;;11.52;3.35;;;;;;;;;;5080429;28;20589;-76
2022/05/29 05:21:52;;;;;;;8.95;2.53;;;;;;;;;;5064694;28;20045;-76
2022/05/29 05:24:19;;;;;;;8.90;2.65;;;;;;;;;;5068216;28;20052;-76
2022/05/29 05:26:45;;;;;;;12.02;3.50;;;;;;;;;;5046248;28;20067;-77
2022/05/29 05:29:12;;;;;;;10.45;3.63;;;;;;;;;;5084485;28;20616;-75
2022/05/29 05:31:38;;;;;;;10.88;3.03;;;;;;;;;;5066589;28;20147;-77
2022/05/29 05:34:05;;;;;;;7.15;2.67;;;;;;;;;;5081154;28;20052;-76
2022/05/29 05:36:31;;;;;;;9.50;2.70;;;;;;;;;;5065938;28;20059;-76
2022/05/29 05:38:58;;;;;;;9.73;2.95;;;;;;;;;;5074093;28;20048;-77
2022/05/29 05:41:24;;;;;;;10.10;2.60;;;;;;;;;;5067637;28;20144;-77
2022/05/29 05:43:50;;;;;;;10.57;3.03;;;;;;;;;;5063489;28;20151;-75
2022/05/29 05:46:18;;;;;;;10.07;2.40;;;;;;;;;;5079604;28;20586;-75
2022/05/29 05:48:45;;;;;;;9.90;2.90;;;;;;;;;;5061785;28;20135;-75
2022/05/29 05:51:11;;;;;;;10.68;3.67;;;;;;;;;;5083967;28;20062;-76
2022/05/29 05:53:39;;;;;;;8.48;2.75;;;;;;;;;;5081023;28;20056;-76
2022/05/29 05:56:06;;;;;;;11.70;3.00;;;;;;;;;;5056610;28;20060;-74
2022/05/29 05:58:33;;;;;;;5.38;1.95;;;;;;;;;;5057183;28;20049;-76
2022/05/29 06:01:03;;;;;;;6.43;2.40;;;;;;;;;;5050453;28;20131;-77
2022/05/29 06:03:29;;;;;;;7.53;2.60;;;;;;;;;;5062725;28;20088;-75
2022/05/29 06:05:55;;;;;;;8.35;2.20;;;;;;;;;;5059746;28;20060;-77
2022/05/29 06:08:22;;;;;;;7.80;2.05;;;;;;;;;;5078182;28;20057;-75
2022/05/29 06:10:48;;;;;;;8.40;2.00;;;;;;;;;;5061425;28;20054;-75
2022/05/29 06:13:14;;;;;;;7.10;2.08;;;;;;;;;;5076958;28;20064;-76
2022/05/29 06:15:44;;;;;;;5.45;1.80;;;;;;;;;;5067457;28;20052;-77
2022/05/29 06:18:11;;;;;;;9.70;2.30;;;;;;;;;;5080164;28;20056;-76
2022/05/29 06:20:37;;;;;;;6.35;1.98;;;;;;;;;;5065353;28;20779;-76
2022/05/29 06:23:04;;;;;;;5.10;1.90;;;;;;;;;;5055834;28;20135;-76
2022/05/29 06:25:30;;;;;;;10.90;2.15;;;;;;;;;;5056761;28;20427;-77
2022/05/29 06:27:57;;;;;;;10.38;2.47;;;;;;;;;;5071008;28;20053;-76
2022/05/29 06:30:23;;;;;;;5.82;1.88;;;;;;;;;;5056170;28;20778;-75
2022/05/29 06:32:49;;;;;;;7.90;2.22;;;;;;;;;;5075968;28;20474;-77
2022/05/29 06:35:16;;;;;;;8.75;2.25;;;;;;;;;;5070491;28;20504;-76
2022/05/29 06:37:42;;;;;;;6.53;2.30;;;;;;;;;;5051523;28;20052;-77
2022/05/29 06:40:10;;;;;;;8.88;2.60;;;;;;;;;;5057897;28;20086;-76
2022/05/29 06:42:36;;;;;;;8.65;2.60;;;;;;;;;;5072018;28;20058;-76
2022/05/29 06:45:03;;;;;;;9.38;2.55;;;;;;;;;;5065560;28;20053;-76
2022/05/29 06:47:30;;;;;;;7.97;2.47;;;;;;;;;;5062595;28;20497;-75
2022/05/29 06:49:58;;;;;;;9.25;2.78;;;;;;;;;;5048421;28;20202;-75
2022/05/29 06:52:29;;;;;;;7.93;2.70;;;;;;;;;;5047439;28;20053;-76
2022/05/29 06:54:55;;;;;;;6.50;2.53;;;;;;;;;;5062809;28;20049;-76
2022/05/29 06:57:37;;;;;;;7.68;2.65;;;;;;;;;;5063061;28;20136;-76
2022/05/29 07:08:25;;;;;;;14.10;2.42;;;;;;;;;;5076629;28;20159;-75
2022/05/29 07:10:52;;;;;;;9.45;2.10;;;;;;;;;;5053246;28;20067;-75
2022/05/29 07:13:18;;;;;;;8.95;2.20;;;;;;;;;;5064369;28;20424;-75
2022/05/29 07:15:44;;;;;;;11.15;3.20;;;;;;;;;;5064893;28;20049;-81
2022/05/29 07:18:11;;;;;;;5.55;1.95;;;;;;;;;;5077330;28;20063;-76
2022/05/29 07:20:37;;;;;;;12.63;2.28;;;;;;;;;;5051660;28;20147;-76
2022/05/29 07:23:06;;;;;;;9.65;2.10;;;;;;;;;;5064300;28;20975;-77
2022/05/29 07:25:33;;;;;;;9.07;2.20;;;;;;;;;;5079986;28;20508;-77
2022/05/29 07:27:59;;;;;;;11.48;2.40;;;;;;;;;;5072505;28;20139;-77
2022/05/29 07:30:26;;;;;;;7.70;1.92;;;;;;;;;;5053807;28;20053;-77
2022/05/29 07:32:52;;;;;;;12.25;1.88;;;;;;;;;;5067171;28;20075;-76
2022/05/29 07:35:18;;;;;;;8.02;1.85;;;;;;;;;;5070202;28;20056;-76
2022/05/29 07:37:44;;;;;;;9.63;1.60;;;;;;;;;;5063560;28;20090;-76
2022/05/29 07:40:11;;;;;;;6.22;1.83;;;;;;;;;;5081008;28;20060;-76
2022/05/29 07:45:39;;;;;;;7.25;1.67;;;;;;;;;;5066997;28;20107;-76
2022/05/29 07:48:05;;;;;;;8.55;1.85;;;;;;;;;;5064910;28;20063;-76
2022/05/29 07:50:32;;;;;;;8.88;1.58;;;;;;;;;;5045533;28;20135;-76
2022/05/29 07:52:59;;;;;;;8.45;1.83;;;;;;;;;;5052756;28;20531;-76
2022/05/29 07:55:25;;;;;;;12.23;1.95;;;;;;;;;;5079352;28;20087;-77
2022/05/29 07:57:53;;;;;;;8.27;1.73;;;;;;;;;;5065366;28;20064;-76
2022/05/29 08:00:20;;;;;;;4.80;2.05;;;;;;;;;;5054251;28;20151;-77
2022/05/29 08:02:46;;;;;;;6.63;1.23;;;;;;;;;;5066165;28;20131;-76
2022/05/29 08:05:14;;;;;;;7.70;1.60;;;;;;;;;;5082287;28;20068;-77
2022/05/29 08:07:41;;;;;;;3.80;0.93;;;;;;;;;;5083708;28;20054;-77
2022/05/29 08:10:08;;;;;;;7.18;1.35;;;;;;;;;;5066180;28;20056;-76
2022/05/29 08:12:34;;;;;;;4.97;1.23;;;;;;;;;;5065133;28;20580;-76
2022/05/29 08:15:01;;;;;;;4.43;1.10;;;;;;;;;;5082297;28;20076;-77
2022/05/29 08:17:27;;;;;;;8.93;1.60;;;;;;;;;;5070857;28;20055;-76
2022/05/29 08:19:54;;;;;;;6.10;1.20;;;;;;;;;;5049738;28;20139;-76
2022/05/29 08:22:20;;;;;;;5.38;0.98;;;;;;;;;;5053177;28;20736;-76
2022/05/29 08:30:51;;;;;;;6.07;1.63;;;;;;;;;;5178529;27;20138;-75
2022/05/29 08:33:20;;;;;;;6.43;1.10;;;;;;;;;;5182331;27;20488;-75
2022/05/29 08:35:52;;;;;;;4.50;1.10;;;;;;;;;;5153486;27;20047;-75
2022/05/29 08:38:21;;;;;;;7.53;1.50;;;;;;;;;;5148394;27;20052;-75
2022/05/29 08:41:25;;;;;;;6.63;1.27;;;;;;;;;;5150175;27;20129;-75
2022/05/29 08:44:05;;;;;;;7.30;1.35;;;;;;;;;;5129138;27;20402;-75
2022/05/29 08:46:36;;;;;;;3.17;0.98;;;;;;;;;;5117319;27;20055;-75
2022/05/29 08:49:02;;;;;;;9.70;1.55;;;;;;;;;;5159490;27;20058;-75
2022/05/29 08:51:32;;;;;;;9.63;2.10;;;;;;;;;;5146181;27;20051;-74
2022/05/29 08:54:08;;;;;;;6.03;1.40;;;;;;;;;;5152556;27;20062;-74
2022/05/29 08:56:53;;;;;;;8.63;1.27;;;;;;;;;;5158202;27;20055;-75
2022/05/29 08:59:24;;;;;;;4.18;1.10;;;;;;;;;;5149245;27;20058;-75
2022/05/29 09:02:10;;;;;;;4.38;1.20;;;;;;;;;;5149767;27;20550;-75
2022/05/29 09:04:40;;;;;;;5.32;0.95;;;;;;;;;;5149051;27;20066;-75
2022/05/29 09:07:09;;;;;;;4.10;1.10;;;;;;;;;;5154276;27;20058;-75
2022/05/29 09:09:48;;;;;;;3.92;1.10;;;;;;;;;;5146794;27;20521;-75
2022/05/29 09:12:18;;;;;;;5.47;1.10;;;;;;;;;;5136223;27;20053;-75
2022/05/29 09:14:48;;;;;;;4.82;1.00;;;;;;;;;;5151280;27;20055;-75
2022/05/29 09:17:18;;;;;;;4.05;1.10;;;;;;;;;;5135798;27;20531;-75
2022/05/29 09:19:47;;;;;;;4.25;1.10;;;;;;;;;;5146057;27;20050;-75
2022/05/29 09:22:17;;;;;;;6.03;1.23;;;;;;;;;;5152254;27;20137;-75
2022/05/29 09:25:10;;;;;;;3.20;0.90;;;;;;;;;;5131254;27;20714;-75
2022/05/29 09:27:38;;;;;;;4.72;1.00;;;;;;;;;;5115828;27;20089;-75
2022/05/29 09:30:05;;;;;;;6.03;1.30;;;;;;;;;;5140010;27;20132;-75
2022/05/29 09:32:32;;;;;;;3.33;1.00;;;;;;;;;;5133021;27;20047;-76
2022/05/29 09:35:05;;;;;;;4.55;1.02;;;;;;;;;;5124133;27;20050;-75
2022/05/29 09:37:52;;;;;;;7.20;1.08;;;;;;;;;;5125874;27;20054;-76
2022/05/29 09:40:24;;;;;;;3.28;1.02;;;;;;;;;;5108826;27;20047;-75
2022/05/29 09:42:53;;;;;;;3.10;0.68;;;;;;;;;;5110543;27;20051;-75
2022/05/29 09:45:19;;;;;;;3.50;0.80;;;;;;;;;;5113630;27;20059;-75
2022/05/29 09:50:51;;;;;;;4.65;0.68;;;;;;;;;;5142275;27;20055;-75
2022/05/29 09:53:28;;;;;;;4.60;0.88;;;;;;;;;;5117490;27;20055;-75
2022/05/29 09:56:00;;;;;;;4.07;0.80;;;;;;;;;;5127040;27;20078;-75
2022/05/29 09:58:28;;;;;;;3.45;0.75;;;;;;;;;;5133194;27;20532;-75
2022/05/29 10:01:01;;;;;;;5.68;1.00;;;;;;;;;;5136499;27;20074;-75
2022/05/29 10:03:39;;;;;;;4.82;0.77;;;;;;;;;;5125419;27;20081;-76
2022/05/29 10:06:24;;;;;;;3.97;0.88;;;;;;;;;;5139897;27;20047;-76
2022/05/29 10:08:52;;;;;;;5.53;0.77;;;;;;;;;;5132528;27;20139;-75
2022/05/29 10:11:28;;;;;;;5.95;1.08;;;;;;;;;;5129862;27;20058;-75
2022/05/29 10:13:55;;;;;;;6.25;1.20;;;;;;;;;;5123838;27;20146;-75
2022/05/29 10:16:32;;;;;;;3.53;1.02;;;;;;;;;;5128388;27;20756;-74
2022/05/29 10:18:58;;;;;;;5.22;0.88;;;;;;;;;;5115206;27;20618;-75
2022/05/29 10:21:27;;;;;;;4.60;0.88;;;;;;;;;;5120467;27;20070;-75
2022/05/29 10:23:58;;;;;;;7.85;1.45;;;;;;;;;;5140758;27;20506;-75
2022/05/29 10:26:24;;;;;;;;;;;;;;;;;;5129567;27;20150;-75
2022/05/29 10:28:50;;;;;;;6.45;0.93;;;;;;;;;;5129502;27;47126;-75
2022/05/29 10:31:27;;;;;;;6.32;1.02;;;;;;;;;;5135623;27;20510;-75
2022/05/29 10:34:00;;;;;;;7.57;1.15;;;;;;;;;;5115139;27;20043;-75
2022/05/29 10:36:27;;;;;;;5.47;1.10;;;;;;;;;;5131429;27;20368;-75
2022/05/29 10:39:04;;;;;;;6.65;1.30;;;;;;;;;;5134981;27;20513;-75
2022/05/29 10:41:33;;;;;;;6.15;1.05;;;;;;;;;;5113640;27;20100;-75
2022/05/29 10:43:59;;;;;;;5.60;1.45;;;;;;;;;;5139232;27;20051;-75
2022/05/29 10:46:38;;;;;;;7.03;1.13;;;;;;;;;;5133680;27;20055;-75
2022/05/29 10:51:58;;;;;;;7.80;1.60;;;;;;;;;;5131841;27;20573;-75
2022/05/29 10:54:46;;;;;;;3.85;0.93;;;;;;;;;;5122708;27;20164;-75
2022/05/29 10:57:50;;;;;;;6.70;1.27;;;;;;;;;;5132526;27;20096;-75
2022/05/29 11:00:37;;;;;;;6.80;1.30;;;;;;;;;;5045433;28;20247;-76
2022/05/29 11:03:18;;;;;;;5.53;1.30;;;;;;;;;;5026865;28;20228;-75
2022/05/29 11:05:53;;;;;;;7.10;1.63;;;;;;;;;;5102166;27;20039;-75
2022/05/29 11:08:20;;;;;;;5.32;1.25;;;;;;;;;;5132719;27;20051;-76
2022/05/29 11:10:53;;;;;;;6.88;1.30;;;;;;;;;;5118192;27;20059;-76
2022/05/29 11:13:59;;;;;;;6.65;1.27;;;;;;;;;;5115655;27;20271;-76
2022/05/29 11:16:32;;;;;;;5.68;1.30;;;;;;;;;;5030364;28;20067;-75
2022/05/29 11:19:17;;;;;;;10.07;1.30;;;;;;;;;;5023533;28;20058;-75
2022/05/29 11:21:46;;;;;;;5.68;0.98;;;;;;;;;;5092996;27;20150;-76
2022/05/29 11:24:15;;;;;;;6.38;1.23;;;;;;;;;;5125831;27;20051;-75
2022/05/29 11:26:47;;;;;;;5.68;1.00;;;;;;;;;;5118973;27;20057;-76
2022/05/29 11:29:13;;;;;;;7.15;1.20;;;;;;;;;;5127872;27;20144;-76
2022/05/29 11:32:03;;;;;;;5.80;1.27;;;;;;;;;;5113261;27;20088;-76
2022/05/29 11:34:35;;;;;;;8.82;1.42;;;;;;;;;;5130424;27;20172;-76
2022/05/29 11:37:20;;;;;;;4.47;1.10;;;;;;;;;;5112984;27;20584;-76
2022/05/29 11:39:49;;;;;;;6.93;1.40;;;;;;;;;;5123459;27;20109;-76
2022/05/29 11:42:22;;;;;;;5.10;1.10;;;;;;;;;;5106110;27;20918;-76
2022/05/29 11:44:54;;;;;;;4.65;0.80;;;;;;;;;;5134973;27;20168;-77
2022/05/29 11:53:07;;;;;;;9.48;1.50;;;;;;;;;;5125088;27;20059;-77
2022/05/29 11:55:35;;;;;;;6.93;1.02;;;;;;;;;;5123452;27;20055;-77
2022/05/29 11:58:03;;;;;;;4.43;0.98;;;;;;;;;;5107645;27;20058;-77
2022/05/29 12:00:36;;;;;;;5.32;1.00;;;;;;;;;;5106171;27;20113;-77
2022/05/29 12:03:09;;;;;;;7.32;1.50;;;;;;;;;;5124863;27;20095;-76
2022/05/29 12:05:47;;;;;;;4.38;1.00;;;;;;;;;;5122661;27;20055;-77
2022/05/29 12:08:17;;;;;;;3.53;0.80;;;;;;;;;;5144287;27;20101;-77
2022/05/29 12:10:51;;;;;;;6.47;1.30;;;;;;;;;;5145824;27;20138;-77
2022/05/29 12:13:20;;;;;;;5.18;1.00;;;;;;;;;;5120127;27;20147;-76
2022/05/29 12:15:50;;;;;;;6.03;1.08;;;;;;;;;;5107234;27;20047;-77
2022/05/29 12:18:18;;;;;;;7.68;1.00;;;;;;;;;;5106544;27;20062;-76
2022/05/29 12:20:49;;;;;;;4.47;0.90;;;;;;;;;;5138826;27;20051;-77
2022/05/29 12:23:28;;;;;;;3.70;0.98;;;;;;;;;;5139173;27;20067;-77
2022/05/29 12:26:00;;;;;;;7.22;1.30;;;;;;;;;;5124887;27;20145;-77
2022/05/29 12:28:32;;;;;;;6.80;1.00;;;;;;;;;;5146415;27;20047;-77
2022/05/29 12:31:00;;;;;;;4.32;0.90;;;;;;;;;;5146357;27;20066;-77
2022/05/29 12:33:27;;;;;;;6.72;0.90;;;;;;;;;;5138300;27;20069;-77
2022/05/29 12:35:56;;;;;;;6.57;0.90;;;;;;;;;;5127489;27;20142;-77
2022/05/29 12:38:32;;;;;;;5.28;1.10;;;;;;;;;;5127683;27;20138;-76
2022/05/29 12:41:35;;;;;;;5.23;1.47;;;;;;;;;;5126164;27;20047;-76
2022/05/29 12:44:30;;;;;;;4.93;1.17;;;;;;;;;;5097601;27;20272;-77
2022/05/29 12:47:23;;;;;;;5.82;0.90;;;;;;;;;;5108570;27;20514;-76
2022/05/29 12:50:13;;;;;;;7.07;1.20;;;;;;;;;;5117114;27;20048;-76
2022/05/29 12:52:58;;;;;;;3.40;1.00;;;;;;;;;;5123195;27;20126;-77
2022/05/29 12:55:46;;;;;;;5.15;1.30;;;;;;;;;;5124255;27;20147;-76
2022/05/29 12:58:38;;;;;;;6.47;1.10;;;;;;;;;;5124830;27;20131;-77
2022/05/29 13:01:20;;;;;;;3.92;1.10;;;;;;;;;;5128157;27;20593;-77
2022/05/29 13:04:06;;;;;;;4.38;0.80;;;;;;;;;;5125639;27;20201;-77
2022/05/29 13:06:52;;;;;;;4.80;0.90;;;;;;;;;;5107703;27;20083;-77
2022/05/29 13:09:32;;;;;;;4.75;1.20;;;;;;;;;;5129731;27;20052;-77
2022/05/29 13:12:11;;;;;;;3.88;1.00;;;;;;;;;;5124006;27;20086;-77
2022/05/29 13:14:45;;;;;;;4.22;0.90;;;;;;;;;;5148084;27;20061;-77
2022/05/29 13:17:43;;;;;;;2.95;0.65;;;;;;;;;;5150410;27;20053;-77
2022/05/29 13:20:15;;;;;;;2.83;0.80;;;;;;;;;;5102049;27;20134;-77
2022/05/29 13:22:59;;;;;;;4.47;0.80;;;;;;;;;;5128327;27;20051;-77
2022/05/29 13:25:49;;;;;;;9.38;1.08;;;;;;;;;;5125292;27;20051;-77
2022/05/29 13:28:26;;;;;;;5.07;1.10;;;;;;;;;;5124055;27;20043;-78
2022/05/29 13:31:12;;;;;;;6.88;1.00;;;;;;;;;;5143983;27;20524;-78
2022/05/29 13:34:33;;;;;;;5.27;1.07;;;;;;;;;;5126772;27;20418;-78
2022/05/29 13:37:00;;;;;;;4.57;1.08;;;;;;;;;;5074862;27;20047;-78
2022/05/29 13:39:35;;;;;;;4.38;1.20;;;;;;;;;;5129737;27;20051;-78
2022/05/29 13:42:11;;;;;;;6.72;1.00;;;;;;;;;;5112106;27;20048;-78
2022/05/29 13:44:44;;;;;;;7.00;0.93;;;;;;;;;;5114083;27;20048;-77
2022/05/29 13:47:28;;;;;;;4.63;1.05;;;;;;;;;;5124053;27;20056;-77
2022/05/29 13:50:17;;;;;;;5.18;0.90;;;;;;;;;;5132427;27;20139;-77
2022/05/29 13:52:43;;;;;;;5.28;0.90;;;;;;;;;;5124439;27;20520;-77
2022/05/29 13:55:18;;;;;;;4.65;0.98;;;;;;;;;;5147568;27;20053;-77
2022/05/29 14:04:20;;;;;;;8.10;1.25;;;;;;;;;;5137123;27;20423;-78
2022/05/29 14:07:18;;;;;;;5.53;1.00;;;;;;;;;;5125336;27;20299;-78
2022/05/29 14:10:24;;;;;;;4.65;1.20;;;;;;;;;;5109967;27;20047;-78
2022/05/29 14:16:45;;;;;;;5.93;1.10;;;;;;;;;;5141764;27;20058;-76
2022/05/29 14:19:44;;;;;;;4.00;1.10;;;;;;;;;;5114795;27;20036;-76
2022/05/29 14:26:07;;;;;;;5.43;1.15;;;;;;;;;;5103014;27;20051;-76
2022/05/29 14:29:35;;;;;;;3.50;0.77;;;;;;;;;;5121206;27;20636;-77
2022/05/29 14:32:39;;;;;;;6.40;1.02;;;;;;;;;;5052791;27;20052;-78
2022/05/29 14:35:44;;;;;;;4.72;0.90;;;;;;;;;;5116147;27;20062;-77
2022/05/29 14:38:33;;;;;;;5.55;0.90;;;;;;;;;;5128802;27;20078;-77
2022/05/29 14:41:38;;;;;;;;;;;;;;;;;;;;;
2022/05/29 14:44:40;;;;;;;4.03;0.90;;;;;;;;;;5171359;22;20044;-77
2022/05/29 14:47:40;;;;;;;6.18;1.05;;;;;;;;;;5087630;28;20054;-77
2022/05/29 14:50:26;;;;;;;4.35;0.93;;;;;;;;;;4988889;28;20054;-77
2022/05/29 14:52:59;;;;;;;4.90;1.10;;;;;;;;;;4987545;28;20604;-77
2022/05/29 14:55:45;;;;;;;6.18;0.90;;;;;;;;;;4998932;28;20090;-77
2022/05/29 14:58:33;;;;;;;4.55;1.20;;;;;;;;;;4986707;28;20161;-77
2022/05/29 15:01:13;;;;;;;5.55;1.55;;;;;;;;;;5003543;28;20055;-77
2022/05/29 15:03:42;;;;;;;4.78;1.10;;;;;;;;;;5002579;28;20155;-77
2022/05/29 15:06:22;;;;;;;5.38;1.48;;;;;;;;;;4989156;28;20133;-77
2022/05/29 15:11:43;;;;;;;6.13;1.10;;;;;;;;;;5003003;28;20536;-78
2022/05/29 15:14:13;;;;;;;6.63;1.30;;;;;;;;;;5000764;28;20900;-77
2022/05/29 15:16:51;;;;;;;4.68;1.20;;;;;;;;;;5000444;28;20060;-77
2022/05/29 15:19:20;;;;;;;7.55;1.35;;;;;;;;;;4986622;28;20125;-77
2022/05/29 15:25:07;;;;;;;4.28;1.13;;;;;;;;;;5069252;28;20067;-77
2022/05/29 15:28:14;;;;;;;5.25;1.00;;;;;;;;;;5080778;28;20044;-77
2022/05/29 15:31:20;;;;;;;4.00;1.13;;;;;;;;;;5022308;28;20057;-78
2022/05/29 15:34:28;;;;;;;2.88;1.05;;;;;;;;;;5019350;28;20852;-78
2022/05/29 15:37:33;;;;;;;5.57;1.00;;;;;;;;;;5004144;28;20513;-78
2022/05/29 15:40:09;;;;;;;;;;;;;;;;;;;;;
2022/05/29 15:43:21;;;;;;;5.65;1.42;;;;;;;;;;4890892;28;20060;-78
2022/05/29 15:46:16;;;;;;;4.40;1.00;;;;;;;;;;4952085;28;20497;-78
2022/05/29 15:49:26;;;;;;;8.50;1.40;;;;;;;;;;4948112;28;20579;-78
2022/05/29 15:55:03;;;;;;;6.10;1.25;;;;;;;;;;5019588;28;20046;-78
2022/05/29 15:57:44;;;;;;;5.15;1.27;;;;;;;;;;5003921;28;20080;-78
2022/05/29 16:03:38;;;;;;;5.15;1.00;;;;;;;;;;5019797;28;20054;-77
2022/05/29 16:06:58;;;;;;;4.18;1.13;;;;;;;;;;4975106;28;20058;-77
2022/05/29 16:09:28;;;;;;;9.50;1.30;;;;;;;;;;4985543;28;20061;-77
2022/05/29 16:11:59;;;;;;;6.10;1.00;;;;;;;;;;4997613;28;20054;-77
2022/05/29 16:14:52;;;;;;;4.78;1.08;;;;;;;;;;5000262;28;20172;-77
2022/05/29 16:17:45;;;;;;;5.70;1.40;;;;;;;;;;5064666;28;20053;-77
2022/05/29 16:20:45;;;;;;;6.18;1.27;;;;;;;;;;5048868;28;20059;-77
2022/05/29 16:23:38;;;;;;;3.05;1.00;;;;;;;;;;5064657;28;20063;-77
2022/05/29 16:26:18;;;;;;;5.10;0.90;;;;;;;;;;5075067;28;20106;-77